createdAt,value
2023-05-10T00:07:24.303Z,2.88
2023-05-10T00:17:27.438Z,2.50
2023-05-10T00:27:30.593Z,2.22
2023-05-10T00:37:33.685Z,2.03
2023-05-10T00:47:37.066Z,1.81
2023-05-10T00:57:40.689Z,1.69
2023-05-10T01:07:43.905Z,1.66
2023-05-10T01:17:49.351Z,1.70
2023-05-10T01:28:22.793Z,1.49
2023-05-10T01:38:48.371Z,1.25
2023-05-10T01:48:58.850Z,1.01
2023-05-10T01:59:09.856Z,0.92
2023-05-10T02:09:15.405Z,0.85
2023-05-10T02:19:19.859Z,0.94
2023-05-10T02:29:25.764Z,0.88
2023-05-10T02:39:29.772Z,0.73
2023-05-10T02:49:33.790Z,0.69
2023-05-10T02:59:37.102Z,0.56
2023-05-10T03:09:41.341Z,0.49
2023-05-10T03:19:57.751Z,0.57
2023-05-10T03:30:03.457Z,0.67
2023-05-10T03:40:10.121Z,0.72
2023-05-10T03:50:15.395Z,0.88
2023-05-10T04:00:19.230Z,1.03
2023-05-10T04:10:24.257Z,1.15
2023-05-10T04:20:27.569Z,1.38
2023-05-10T04:30:30.743Z,1.76
2023-05-10T04:40:34.081Z,2.26
2023-05-10T04:50:37.699Z,2.85
2023-05-10T05:00:40.951Z,3.51
2023-05-10T05:10:44.227Z,4.19
2023-05-10T05:20:47.506Z,4.84
2023-05-10T05:30:50.623Z,5.59
2023-05-10T05:40:53.790Z,6.42
2023-05-10T05:50:57.797Z,6.94
2023-05-10T06:01:01.043Z,7.53
2023-05-10T06:11:05.281Z,9.18
2023-05-10T06:21:08.751Z,11.66
2023-05-10T06:31:13.059Z,13.72
2023-05-10T06:41:16.220Z,15.37
2023-05-10T06:51:19.454Z,16.83
2023-05-10T07:01:22.697Z,18.13
2023-05-10T07:11:26.047Z,19.31
2023-05-10T07:21:29.980Z,19.98
2023-05-10T07:31:33.132Z,20.67
2023-05-10T07:41:36.293Z,21.03
2023-05-10T07:51:39.494Z,20.86
2023-05-10T08:01:43.453Z,20.94
2023-05-10T08:11:46.484Z,19.22
2023-05-10T08:21:50.076Z,18.66
2023-05-10T08:31:53.267Z,18.02
2023-05-10T08:42:00.672Z,17.57
2023-05-10T08:52:06.643Z,17.42
2023-05-10T09:02:12.888Z,17.49
2023-05-10T09:12:16.763Z,17.83
2023-05-10T09:22:19.900Z,18.16
2023-05-10T09:32:22.973Z,18.21
2023-05-10T09:42:26.526Z,18.00
2023-05-10T09:52:29.782Z,17.97
2023-05-10T10:02:33.262Z,17.75
2023-05-10T10:12:36.913Z,17.80
2023-05-10T10:22:40.127Z,18.18
2023-05-10T10:33:03.922Z,18.32
2023-05-10T10:43:26.647Z,18.19
2023-05-10T10:53:30.205Z,18.08
2023-05-10T11:03:33.168Z,18.63
2023-05-10T11:13:50.965Z,18.81
2023-05-10T11:23:59.908Z,18.46
2023-05-10T11:34:03.053Z,18.48
2023-05-10T11:44:06.195Z,19.03
2023-05-10T11:54:11.548Z,19.30
2023-05-10T12:04:14.939Z,19.14
2023-05-10T12:14:20.629Z,18.91
2023-05-10T12:24:26.482Z,18.91
2023-05-10T12:34:37.289Z,19.01
2023-05-10T12:44:41.006Z,19.00
2023-05-10T12:54:44.102Z,19.14
2023-05-10T13:04:48.943Z,19.15
2023-05-10T13:14:54.026Z,19.41
2023-05-10T13:24:57.294Z,19.23
2023-05-10T13:35:00.537Z,19.38
2023-05-10T13:45:03.893Z,18.99
2023-05-10T13:55:07.349Z,18.91
2023-05-10T14:05:10.540Z,18.77
2023-05-10T14:15:13.740Z,18.87
2023-05-10T14:25:17.167Z,18.93
2023-05-10T14:35:21.507Z,18.80
2023-05-10T14:45:25.118Z,18.80
2023-05-10T14:55:28.251Z,18.68
2023-05-10T15:05:31.365Z,18.51
2023-05-10T15:15:34.943Z,18.99
2023-05-10T15:25:38.646Z,19.19
2023-05-10T15:35:42.213Z,19.05
2023-05-10T15:45:45.346Z,18.71
2023-05-10T15:55:48.790Z,18.29
2023-05-10T16:05:51.891Z,17.75
2023-05-10T16:15:55.283Z,17.64
2023-05-10T16:25:58.656Z,17.63
2023-05-10T16:36:01.680Z,17.45
2023-05-10T16:46:10.818Z,17.26
2023-05-10T16:56:14.054Z,17.02
2023-05-10T17:06:17.069Z,16.50
2023-05-10T17:16:21.511Z,16.04
2023-05-10T17:26:25.063Z,15.60
2023-05-10T17:36:28.640Z,15.12
2023-05-10T17:46:31.712Z,14.45
2023-05-10T17:56:34.948Z,13.66
2023-05-10T18:06:38.475Z,12.99
2023-05-10T18:16:43.278Z,12.47
2023-05-10T18:26:47.204Z,12.04
2023-05-10T18:36:50.345Z,11.58
2023-05-10T18:46:54.382Z,11.15
2023-05-10T18:56:58.948Z,10.62
2023-05-10T19:07:03.234Z,10.22
2023-05-10T19:17:06.351Z,9.87
2023-05-10T19:27:12.181Z,9.58
2023-05-10T19:37:17.520Z,9.29
2023-05-10T19:47:20.534Z,8.98
2023-05-10T19:57:24.197Z,8.54
2023-05-10T20:07:27.267Z,8.24
2023-05-10T20:17:30.480Z,7.96
2023-05-10T20:27:33.698Z,7.56
2023-05-10T20:37:38.068Z,7.26
2023-05-10T20:47:41.314Z,7.01
2023-05-10T20:57:45.290Z,6.91
2023-05-10T21:07:49.492Z,6.65
2023-05-10T21:17:54.096Z,6.36
2023-05-10T21:27:57.238Z,6.17
2023-05-10T21:38:00.362Z,6.17
2023-05-10T21:48:03.866Z,6.08
2023-05-10T21:58:07.149Z,5.96
2023-05-10T22:08:10.134Z,5.88
2023-05-10T22:18:13.217Z,5.74
2023-05-10T22:28:16.497Z,5.45
2023-05-10T22:38:19.670Z,5.11
2023-05-10T22:48:22.776Z,4.78
2023-05-10T22:58:26.619Z,4.58
2023-05-10T23:08:29.622Z,4.62
2023-05-10T23:18:32.778Z,4.44
2023-05-10T23:28:35.846Z,4.23
2023-05-10T23:38:39.571Z,3.91
2023-05-10T23:48:42.880Z,3.72
2023-05-10T23:58:46.496Z,3.78
